Terminal Aerodrome Forecast
Issued by NWS Wilmington, NC

Home | Current Version | Previous Version | Text Only | Print | Product List | Glossary On
Versions: 1 2 3 4 5 6 7 8 9 10 11 12 13 14 15 16 17 18 19 20 21 22 23
305
FTUS42 KILM 241509 AAB
TAFMYR
TAF AMD
KMYR 241509Z 2415/2512 19007KT P6SM BKN015 BKN021
     FM241600 22008KT P6SM SCT035
     FM242000 18011KT P6SM SCT250=

USA.gov is the U.S. government's official web portal to all federal, state and local government web resources and services.